Terminal Aerodrome Forecast
Issued by NWS

Home | Current Version | Previous Version | Text Only | Print | Product List | Glossary On
Versions: 1 2 3 4 5 6 7 8 9 10 11 12 13 14 15 16 17 18 19 20 21 22 23 24 25 26 27 28 29 30
000
FTUS41 KBUF 300339 AAA
TAFJHW
TAF AMD
KJHW 300339Z 3004/3024 15005KT P6SM -SHRA OVC040
     FM300500 11008KT 6SM -SHRA VCTS OVC040CB
     FM300900 13008KT P6SM VCSH OVC025
     FM301200 16010KT P6SM VCSH BKN012
     FM301600 20011G17KT P6SM VCSH OVC015
     FM302000 23009KT 6SM -SHRA VCTS OVC015CB
     FM302300 20005KT P6SM VCSH BKN015
      AMD LTD TO CLD VIS AND WIND=

USA.gov is the U.S. government's official web portal to all federal, state and local government web resources and services.